Pagina principale
METAR-TAF:

METAR-TAF

Aeroporti :

Zeltweg, Austria

Aerodromo Hinterstoisser-Zeltweg

latitudine: 47-12N, longitudine: 014-45E, altezza: 677 m

Osservazione

Il bollettino è stato emesso 40 minuti fa, alle 19:50 UTC
Vento 6 kt da ovest/sud-ovest
Temperature 13°C
Umidità 67%
Pressione 1007 hPa

METAR: LOXZ 251950Z 25006KT 40KM FEW050SC SCT110AC BKN280CI 13/07 Q1007

Ora: 22:30 (20:30 UTC)


TAF: mancante

Osservazioni e previsioni meteorologiche di più di 4000 aeroporti (messaggi METAR e TAF).

Le stazioni disponibili sono rappresentate dai dischi gialli e rossi sulla carta.

Puntare il mouse per vedere il nome della stazione.

Clicca sopra per visualizzare le osservazioni e previsioni meteorologiche.

Per cambiare la mappa : fare clic sui pulsanti verdi con una croce nera per ingrandire, il pulsante verde con un trattino per diminuire, o sulla freccia verde per le mappe adiacenti.


METAR-TAF: